Time;durP1;ratioP1;P1;durP2;ratioP2;P2;SDS_P1;SDS_P2;PMS_P1;PMS_P2;Temp;Humidity;BMP_temperature;BMP_pressure;BME280_temperature;BME280_humidity;BME280_pressure;Samples;Min_cycle;Max_cycle;Signal;HPM_P1;HPM_P2
2023/06/23 00:02:29;;;;;;;12.57;6.70;;;15.50;99.90;;;;;;5030267;28;20096;-79
2023/06/23 00:04:55;;;;;;;9.50;6.28;;;15.50;99.90;;;;;;5029815;28;20069;-79
2023/06/23 00:07:21;;;;;;;10.95;5.60;;;15.50;99.90;;;;;;5031465;28;20118;-79
2023/06/23 00:09:46;;;;;;;11.13;6.38;;;15.50;99.90;;;;;;5031833;28;20129;-80
2023/06/23 00:12:12;;;;;;;8.65;5.70;;;15.40;99.90;;;;;;5031883;28;20083;-79
2023/06/23 00:14:38;;;;;;;12.05;5.30;;;15.40;99.90;;;;;;5032235;28;20069;-79
2023/06/23 00:17:05;;;;;;;16.58;5.60;;;15.40;99.90;;;;;;5031098;28;20101;-79
2023/06/23 00:19:31;;;;;;;8.65;5.32;;;15.40;99.90;;;;;;5031659;28;20160;-79
2023/06/23 00:21:58;;;;;;;13.55;5.70;;;15.40;99.90;;;;;;5031774;28;20164;-80
2023/06/23 00:24:23;;;;;;;21.45;9.52;;;15.30;99.90;;;;;;5031661;28;20095;-80
2023/06/23 00:26:50;;;;;;;56.28;22.23;;;15.30;99.90;;;;;;5030816;28;20071;-79
2023/06/23 00:29:16;;;;;;;61.38;24.10;;;15.30;99.90;;;;;;5032063;28;20116;-79
2023/06/23 00:31:42;;;;;;;58.47;21.67;;;15.30;99.90;;;;;;5032612;28;20525;-79
2023/06/23 00:34:08;;;;;;;22.55;10.77;;;15.20;99.90;;;;;;5031466;28;20069;-80
2023/06/23 00:36:34;;;;;;;15.13;7.85;;;15.20;99.90;;;;;;5031059;28;20076;-79
2023/06/23 00:39:02;;;;;;;12.07;6.25;;;15.20;99.90;;;;;;5031563;28;20069;-79
2023/06/23 00:41:28;;;;;;;10.65;5.68;;;15.20;99.90;;;;;;5031320;28;20087;-80
2023/06/23 00:43:59;;;;;;;10.02;5.53;;;15.10;99.90;;;;;;5014315;28;20077;-79
2023/06/23 00:46:27;;;;;;;10.43;5.72;;;15.10;99.90;;;;;;5030646;28;20167;-79
2023/06/23 00:48:53;;;;;;;9.48;5.82;;;15.10;99.90;;;;;;5030657;28;20089;-79
2023/06/23 00:51:22;;;;;;;9.55;5.82;;;15.10;99.90;;;;;;5030519;28;20123;-79
2023/06/23 00:53:48;;;;;;;9.52;5.53;;;15.00;99.90;;;;;;5031360;28;20152;-79
2023/06/23 00:56:21;;;;;;;10.15;5.35;;;15.00;99.90;;;;;;5031289;28;20162;-79
2023/06/23 00:58:48;;;;;;;11.35;5.18;;;14.90;99.90;;;;;;5030611;28;20104;-79
2023/06/23 01:01:15;;;;;;;7.13;4.57;;;14.90;99.90;;;;;;5038935;22;20104;-82
2023/06/23 01:03:41;;;;;;;9.48;5.15;;;14.80;99.90;;;;;;5033283;28;20498;-83
2023/06/23 01:06:20;;;;;;;9.02;5.65;;;14.80;99.90;;;;;;5013869;28;20079;-83
2023/06/23 01:08:59;;;;;;;9.93;5.40;;;14.70;99.90;;;;;;5027410;28;20121;-83
2023/06/23 01:11:33;;;;;;;12.65;5.72;;;14.70;99.90;;;;;;5028268;28;20100;-83
2023/06/23 01:14:06;;;;;;;10.48;6.35;;;14.70;99.90;;;;;;5029573;28;20071;-83
2023/06/23 01:16:37;;;;;;;10.10;5.93;;;14.60;99.90;;;;;;5015330;28;20079;-84
2023/06/23 01:19:32;;;;;;;9.50;4.97;;;14.60;99.90;;;;;;5030918;28;20123;-84
2023/06/23 01:22:22;;;;;;;13.20;6.07;;;14.50;99.90;;;;;;5018632;28;20089;-87
2023/06/23 01:24:56;;;;;;;11.77;5.70;;;14.50;99.90;;;;;;5024583;28;20075;-83
2023/06/23 01:27:46;;;;;;;11.77;6.55;;;14.50;99.90;;;;;;5029950;28;20122;-84
2023/06/23 01:30:16;;;;;;;12.45;7.20;;;14.40;99.90;;;;;;5023167;28;20092;-83
2023/06/23 01:32:49;;;;;;;12.65;7.30;;;14.40;99.90;;;;;;5029621;28;20069;-84
2023/06/23 01:35:22;;;;;;;20.98;8.52;;;14.30;99.90;;;;;;5030566;28;20094;-83
2023/06/23 01:37:51;;;;;;;15.65;7.28;;;14.30;99.90;;;;;;5030010;28;20073;-83
2023/06/23 01:40:20;;;;;;;17.60;7.15;;;14.30;99.90;;;;;;5030839;28;20096;-83
2023/06/23 01:42:51;;;;;;;18.08;7.72;;;14.20;99.90;;;;;;5030692;28;20172;-83
2023/06/23 01:45:19;;;;;;;15.07;7.38;;;14.20;99.90;;;;;;5030227;28;20432;-83
2023/06/23 01:47:49;;;;;;;12.98;7.03;;;14.20;99.90;;;;;;5029995;28;20594;-83
2023/06/23 01:50:18;;;;;;;12.23;6.20;;;14.10;99.90;;;;;;5023979;28;20092;-83
2023/06/23 01:52:45;;;;;;;16.13;6.25;;;14.10;99.90;;;;;;5030299;28;20064;-84
2023/06/23 01:55:12;;;;;;;13.85;6.15;;;14.10;99.90;;;;;;5029805;28;20129;-83
2023/06/23 01:57:39;;;;;;;11.05;6.03;;;14.00;99.90;;;;;;5029951;28;20096;-83
2023/06/23 02:02:41;;;;;;;16.38;6.68;;;14.00;99.90;;;;;;5072699;28;20100;-80
2023/06/23 02:05:08;;;;;;;15.68;6.90;;;14.00;99.90;;;;;;5051228;28;20064;-79
2023/06/23 02:07:35;;;;;;;16.58;6.63;;;13.90;99.90;;;;;;5050626;28;20060;-80
2023/06/23 02:10:05;;;;;;;13.00;6.70;;;13.90;99.90;;;;;;5050874;28;20095;-79
2023/06/23 02:12:33;;;;;;;13.60;6.35;;;13.90;99.90;;;;;;5046992;28;20159;-80
2023/06/23 02:15:00;;;;;;;16.88;6.82;;;13.80;99.90;;;;;;5070202;28;20512;-79
2023/06/23 02:17:26;;;;;;;16.05;5.78;;;13.80;99.90;;;;;;5069133;28;20075;-79
2023/06/23 02:19:53;;;;;;;17.23;6.32;;;13.70;99.90;;;;;;5069727;28;20095;-79
2023/06/23 02:22:22;;;;;;;15.80;5.88;;;13.70;99.90;;;;;;5069850;28;20130;-80
2023/06/23 02:24:49;;;;;;;20.25;6.75;;;13.60;99.90;;;;;;5069634;28;20508;-80
2023/06/23 02:27:15;;;;;;;16.20;6.07;;;13.60;99.90;;;;;;5069641;28;20080;-78
2023/06/23 02:29:41;;;;;;;16.35;6.40;;;13.50;99.90;;;;;;5069651;28;20629;-79
2023/06/23 02:32:09;;;;;;;17.95;6.22;;;13.50;99.90;;;;;;5069505;28;20092;-79
2023/06/23 02:34:37;;;;;;;15.73;6.13;;;13.50;99.90;;;;;;5069271;28;20071;-79
2023/06/23 02:37:09;;;;;;;16.90;6.38;;;13.50;99.90;;;;;;5069312;28;20074;-79
2023/06/23 02:39:47;;;;;;;12.88;6.25;;;13.40;99.90;;;;;;5048528;28;20077;-79
2023/06/23 02:42:15;;;;;;;12.35;5.88;;;13.40;99.90;;;;;;5048416;28;20081;-79
2023/06/23 02:44:51;;;;;;;14.77;6.13;;;13.30;99.90;;;;;;5067884;28;20067;-79
2023/06/23 02:47:19;;;;;;;16.48;6.63;;;13.30;99.90;;;;;;5068414;28;20067;-79
2023/06/23 02:49:48;;;;;;;15.40;7.00;;;13.30;99.90;;;;;;5068503;28;20092;-79
2023/06/23 02:52:17;;;;;;;18.02;6.40;;;13.20;99.90;;;;;;5069062;28;20170;-80
2023/06/23 02:54:49;;;;;;;19.40;7.38;;;13.20;99.90;;;;;;5069211;28;20068;-79
2023/06/23 02:57:17;;;;;;;16.13;6.47;;;13.20;99.90;;;;;;5069109;28;20064;-78
2023/06/23 02:59:45;;;;;;;16.55;6.75;;;13.20;99.90;;;;;;5069468;28;20083;-78
2023/06/23 03:02:15;;;;;;;20.52;6.80;;;13.20;99.90;;;;;;5065356;28;20116;-79
2023/06/23 03:04:41;;;;;;;14.03;5.73;;;13.10;99.90;;;;;;5068943;28;20151;-79
2023/06/23 03:07:10;;;;;;;17.60;7.00;;;13.10;99.90;;;;;;5049248;28;20060;-78
2023/06/23 03:09:36;;;;;;;14.73;5.75;;;13.10;99.90;;;;;;5069505;28;20121;-79
2023/06/23 03:12:02;;;;;;;18.17;6.35;;;13.00;99.90;;;;;;5069097;28;20087;-79
2023/06/23 03:14:28;;;;;;;17.30;6.82;;;13.00;99.90;;;;;;5068518;28;20080;-79
2023/06/23 03:17:02;;;;;;;18.65;6.68;;;12.90;99.90;;;;;;5068661;28;20118;-79
2023/06/23 03:19:47;;;;;;;19.75;6.22;;;12.90;99.90;;;;;;5062330;28;20059;-79
2023/06/23 03:22:29;;;;;;;21.88;7.15;;;12.90;99.90;;;;;;5062575;28;20096;-80
2023/06/23 03:25:02;;;;;;;22.90;6.30;;;12.80;99.90;;;;;;5069125;28;20717;-79
2023/06/23 03:27:29;;;;;;;23.48;6.90;;;12.80;99.90;;;;;;5068743;28;20068;-79
2023/06/23 03:30:04;;;;;;;19.77;6.22;;;12.80;99.90;;;;;;5068851;28;20131;-80
2023/06/23 03:32:35;;;;;;;19.55;6.50;;;12.80;99.90;;;;;;5068602;28;20078;-78
2023/06/23 03:35:06;;;;;;;18.30;5.72;;;12.70;99.90;;;;;;5062584;28;20075;-80
2023/06/23 03:37:35;;;;;;;19.83;6.22;;;12.70;99.90;;;;;;5068675;28;20068;-79
2023/06/23 03:40:07;;;;;;;22.23;7.05;;;12.70;99.90;;;;;;5050544;28;20104;-79
2023/06/23 03:42:48;;;;;;;18.95;6.72;;;12.70;99.90;;;;;;5068990;28;20114;-79
2023/06/23 03:45:16;;;;;;;14.63;6.13;;;12.70;99.90;;;;;;5068704;28;20068;-80
2023/06/23 03:47:45;;;;;;;22.67;6.78;;;12.70;99.90;;;;;;5061737;28;20083;-79
2023/06/23 03:50:19;;;;;;;18.77;6.63;;;12.70;99.90;;;;;;5068541;28;20636;-78
2023/06/23 03:52:46;;;;;;;20.88;6.43;;;12.70;99.90;;;;;;5065892;28;20080;-79
2023/06/23 03:55:13;;;;;;;18.15;6.63;;;12.70;99.90;;;;;;5069622;28;20478;-79
2023/06/23 03:57:40;;;;;;;19.73;6.35;;;12.60;99.90;;;;;;5072324;28;20060;-79
2023/06/23 04:00:11;;;;;;;14.88;6.10;;;12.60;99.90;;;;;;5065979;28;20181;-79
2023/06/23 04:02:39;;;;;;;21.42;6.20;;;12.60;99.90;;;;;;5050853;28;20076;-79
2023/06/23 04:05:06;;;;;;;15.38;5.95;;;12.60;99.90;;;;;;5072145;28;20417;-79
2023/06/23 04:07:33;;;;;;;16.67;6.43;;;12.60;99.90;;;;;;5072078;28;20075;-79
2023/06/23 04:10:03;;;;;;;15.55;6.13;;;12.60;99.90;;;;;;5072060;28;20161;-79
2023/06/23 04:12:32;;;;;;;15.57;6.28;;;12.60;99.90;;;;;;5072145;28;20084;-79
2023/06/23 04:14:59;;;;;;;15.13;5.82;;;12.60;99.90;;;;;;5071623;28;20061;-80
2023/06/23 04:17:26;;;;;;;16.88;5.72;;;12.50;99.90;;;;;;5071369;28;20107;-79
2023/06/23 04:19:57;;;;;;;22.48;6.70;;;12.50;99.90;;;;;;5071709;28;20110;-79
2023/06/23 04:22:25;;;;;;;16.58;5.78;;;12.50;99.90;;;;;;5071905;28;20072;-79
2023/06/23 04:24:52;;;;;;;15.07;5.65;;;12.50;99.90;;;;;;5071466;28;20619;-79
2023/06/23 04:27:21;;;;;;;18.40;6.03;;;12.50;99.90;;;;;;5070996;28;20118;-78
2023/06/23 04:29:49;;;;;;;17.23;5.78;;;12.60;99.90;;;;;;5050514;28;20105;-79
2023/06/23 04:32:16;;;;;;;14.10;5.57;;;12.50;99.90;;;;;;5070782;28;20079;-79
2023/06/23 04:34:42;;;;;;;27.90;7.20;;;12.60;99.90;;;;;;5053462;28;20122;-80
2023/06/23 04:37:17;;;;;;;17.92;6.20;;;12.60;99.90;;;;;;5071759;28;20121;-79
2023/06/23 04:39:51;;;;;;;16.38;5.32;;;12.60;99.90;;;;;;5065479;28;20574;-80
2023/06/23 04:42:24;;;;;;;15.80;5.57;;;12.70;99.90;;;;;;5071158;28;20088;-80
2023/06/23 04:44:53;;;;;;;17.20;5.95;;;12.70;99.90;;;;;;5071021;28;20118;-78
2023/06/23 04:47:22;;;;;;;19.23;6.18;;;12.70;99.90;;;;;;5070534;28;20682;-79
2023/06/23 04:49:54;;;;;;;14.70;5.75;;;12.80;99.90;;;;;;5050411;28;20145;-79
2023/06/23 04:52:21;;;;;;;16.50;5.15;;;12.80;99.90;;;;;;5064458;28;20087;-80
2023/06/23 04:54:50;;;;;;;14.73;6.28;;;12.90;99.90;;;;;;5071105;28;20636;-79
2023/06/23 04:57:21;;;;;;;18.90;6.50;;;13.00;99.90;;;;;;5071236;28;20471;-79
2023/06/23 04:59:51;;;;;;;11.30;5.60;;;13.10;99.90;;;;;;5070971;28;20068;-79
2023/06/23 05:02:19;;;;;;;15.07;5.28;;;13.20;99.90;;;;;;5070962;28;20096;-79
2023/06/23 05:04:48;;;;;;;12.43;5.28;;;13.30;99.90;;;;;;5067708;28;20151;-79
2023/06/23 05:07:16;;;;;;;10.18;4.30;;;13.40;99.90;;;;;;5071087;28;20137;-79
2023/06/23 05:09:47;;;;;;;11.70;4.97;;;13.40;99.90;;;;;;5071104;28;20106;-79
2023/06/23 05:12:16;;;;;;;11.48;5.07;;;13.60;99.90;;;;;;5070826;28;20080;-79
2023/06/23 05:14:43;;;;;;;9.77;4.45;;;13.60;99.90;;;;;;5070550;28;20076;-79
2023/06/23 05:17:12;;;;;;;8.23;4.63;;;13.70;99.90;;;;;;5070716;28;20118;-78
2023/06/23 05:19:41;;;;;;;9.80;5.15;;;13.80;99.90;;;;;;5070548;28;20153;-79
2023/06/23 05:22:11;;;;;;;11.30;5.15;;;13.90;99.90;;;;;;5070448;28;20206;-79
2023/06/23 05:24:41;;;;;;;10.07;4.90;;;14.00;99.90;;;;;;5070458;28;20137;-79
2023/06/23 05:27:08;;;;;;;10.57;5.47;;;14.10;99.90;;;;;;5070284;28;20079;-79
2023/06/23 05:29:41;;;;;;;11.35;5.30;;;14.20;99.90;;;;;;5070007;28;20098;-79
2023/06/23 05:32:11;;;;;;;10.18;5.30;;;14.30;99.90;;;;;;5069853;28;20087;-79
2023/06/23 05:34:39;;;;;;;10.48;5.50;;;14.30;99.90;;;;;;5070344;28;20125;-79
2023/06/23 05:37:06;;;;;;;11.10;5.50;;;14.40;99.90;;;;;;5049570;28;20070;-79
2023/06/23 05:39:36;;;;;;;7.78;4.40;;;14.40;99.90;;;;;;5068500;28;20452;-79
2023/06/23 05:42:02;;;;;;;9.88;5.07;;;14.40;99.90;;;;;;5070530;28;20098;-80
2023/06/23 05:44:28;;;;;;;11.38;5.13;;;14.50;99.90;;;;;;5070450;28;20064;-80
2023/06/23 05:46:57;;;;;;;9.82;5.15;;;14.60;99.90;;;;;;5049175;28;20072;-79
2023/06/23 05:49:25;;;;;;;12.65;4.60;;;14.50;99.90;;;;;;5066937;28;20540;-79
2023/06/23 05:51:57;;;;;;;8.15;3.97;;;14.60;99.90;;;;;;5070405;28;20096;-78
2023/06/23 05:54:25;;;;;;;9.70;4.78;;;14.60;99.90;;;;;;5062772;28;20218;-79
2023/06/23 05:56:55;;;;;;;9.38;5.03;;;14.70;99.90;;;;;;5069753;28;20071;-79
2023/06/23 05:59:33;;;;;;;10.75;5.80;;;14.80;99.90;;;;;;5070094;28;20121;-79
2023/06/23 06:02:01;;;;;;;9.18;5.57;;;14.90;99.90;;;;;;5066580;28;20107;-79
2023/06/23 06:04:32;;;;;;;9.25;4.75;;;15.20;99.90;;;;;;5063810;28;20067;-79
2023/06/23 06:06:59;;;;;;;12.48;6.22;;;15.30;99.90;;;;;;5059859;28;20072;-79
2023/06/23 06:09:29;;;;;;;8.38;5.82;;;15.50;99.90;;;;;;5062822;28;20092;-79
2023/06/23 06:11:56;;;;;;;10.25;6.43;;;15.70;99.90;;;;;;5060420;28;20080;-79
2023/06/23 06:14:24;;;;;;;9.23;5.57;;;15.80;99.90;;;;;;5060580;28;20536;-79
2023/06/23 06:16:52;;;;;;;8.07;4.72;;;16.00;99.90;;;;;;5059558;28;20077;-79
2023/06/23 06:19:22;;;;;;;8.95;5.25;;;16.10;99.90;;;;;;5060352;28;20081;-79
2023/06/23 06:21:50;;;;;;;13.15;6.90;;;16.40;99.90;;;;;;5060493;28;20243;-80
2023/06/23 06:24:17;;;;;;;11.95;5.80;;;16.70;99.90;;;;;;5060535;28;20068;-80
2023/06/23 06:26:44;;;;;;;8.43;5.97;;;16.90;99.90;;;;;;5062076;28;20127;-80
2023/06/23 06:29:14;;;;;;;8.73;5.88;;;17.20;99.90;;;;;;5065768;28;20630;-80
2023/06/23 06:31:42;;;;;;;9.10;5.95;;;17.40;99.90;;;;;;5065282;28;20163;-80
2023/06/23 06:34:09;;;;;;;8.60;5.07;;;17.60;99.90;;;;;;5057453;28;20063;-80
2023/06/23 06:36:36;;;;;;;8.38;5.50;;;17.80;99.90;;;;;;5058873;28;20059;-80
2023/06/23 06:39:05;;;;;;;9.73;5.97;;;17.90;99.90;;;;;;5060311;28;20124;-79
2023/06/23 06:41:31;;;;;;;9.23;5.90;;;18.00;99.90;;;;;;5061137;28;20111;-79
2023/06/23 06:43:57;;;;;;;7.50;5.68;;;18.00;99.90;;;;;;5048496;28;20539;-81
2023/06/23 06:46:26;;;;;;;6.65;4.65;;;17.90;99.90;;;;;;5062414;28;20701;-80
2023/06/23 06:48:53;;;;;;;8.80;5.35;;;18.00;99.90;;;;;;5069194;28;20479;-79
2023/06/23 06:51:19;;;;;;;8.13;5.80;;;17.90;99.90;;;;;;5049045;28;20075;-79
2023/06/23 06:53:45;;;;;;;11.65;6.30;;;17.90;99.90;;;;;;5069547;28;20058;-79
2023/06/23 06:56:12;;;;;;;9.95;6.00;;;17.90;99.90;;;;;;5068987;28;20058;-79
2023/06/23 06:58:38;;;;;;;6.57;5.03;;;17.90;99.90;;;;;;5062384;28;20065;-79
2023/06/23 07:01:06;;;;;;;9.68;6.45;;;18.00;99.90;;;;;;5069443;28;20158;-79
2023/06/23 07:03:33;;;;;;;8.23;5.03;;;18.00;99.90;;;;;;5068135;28;20044;-79
2023/06/23 07:05:59;;;;;;;6.53;3.90;;;18.00;99.90;;;;;;5069071;28;20811;-79
2023/06/23 07:08:25;;;;;;;8.52;5.00;;;18.10;99.90;;;;;;5069437;28;20071;-79
2023/06/23 07:10:50;;;;;;;8.15;5.65;;;18.20;99.90;;;;;;5068101;28;20129;-79
2023/06/23 07:13:16;;;;;;;9.75;6.43;;;18.20;99.90;;;;;;5042704;28;20112;-79
2023/06/23 07:15:42;;;;;;;6.90;4.82;;;18.30;99.90;;;;;;5058729;28;20150;-79
2023/06/23 07:18:07;;;;;;;8.68;5.38;;;18.40;99.90;;;;;;5060820;28;20092;-79
2023/06/23 07:20:33;;;;;;;9.63;6.07;;;18.50;99.90;;;;;;5066921;28;20494;-80
2023/06/23 07:22:59;;;;;;;10.57;5.95;;;18.70;99.90;;;;;;5058887;28;20519;-79
2023/06/23 07:25:24;;;;;;;7.13;5.20;;;18.80;99.90;;;;;;5064381;28;20571;-79
2023/06/23 07:27:50;;;;;;;10.43;7.15;;;19.00;99.90;;;;;;5067285;28;20569;-79
2023/06/23 07:30:16;;;;;;;8.80;6.07;;;19.20;99.10;;;;;;5072498;28;20081;-79
2023/06/23 07:32:45;;;;;;;10.82;6.38;;;19.30;98.00;;;;;;5065525;28;20068;-78
2023/06/23 07:35:10;;;;;;;9.95;5.40;;;19.40;99.50;;;;;;5073591;28;20063;-78
2023/06/23 07:37:37;;;;;;;10.18;6.72;;;19.50;99.30;;;;;;5073645;28;20393;-79
2023/06/23 07:40:07;;;;;;;8.45;6.10;;;19.60;98.30;;;;;;5070431;28;20051;-79
2023/06/23 07:42:32;;;;;;;10.70;6.75;;;19.70;98.60;;;;;;5069404;28;20074;-79
2023/06/23 07:44:58;;;;;;;11.18;6.30;;;19.80;97.30;;;;;;5071913;28;20052;-79
2023/06/23 07:47:24;;;;;;;9.50;6.95;;;20.00;97.50;;;;;;5045015;28;20065;-79
2023/06/23 07:49:50;;;;;;;8.20;5.15;;;20.10;95.90;;;;;;5063802;28;20090;-78
2023/06/23 07:52:15;;;;;;;8.70;6.85;;;20.20;96.10;;;;;;5063774;28;20072;-80
2023/06/23 07:54:41;;;;;;;8.05;5.28;;;20.30;95.00;;;;;;5069374;28;20057;-79
2023/06/23 07:57:08;;;;;;;9.23;5.50;;;20.50;94.30;;;;;;5060150;28;20055;-79
2023/06/23 07:59:35;;;;;;;5.72;4.57;;;20.70;93.90;;;;;;5067485;28;21298;-79
2023/06/23 08:02:00;;;;;;;7.03;4.70;;;20.90;92.10;;;;;;5061488;28;20074;-80
2023/06/23 08:04:26;;;;;;;6.80;4.60;;;21.00;90.70;;;;;;5067157;28;20078;-80
2023/06/23 08:06:52;;;;;;;18.13;5.43;;;21.10;90.90;;;;;;5061364;28;20099;-80
2023/06/23 08:09:18;;;;;;;5.50;3.90;;;21.20;89.70;;;;;;5066709;28;20070;-79
2023/06/23 08:11:44;;;;;;;5.25;4.13;;;21.20;89.70;;;;;;5068352;28;20184;-81
2023/06/23 08:14:10;;;;;;;5.63;4.03;;;21.30;87.70;;;;;;5068630;28;20551;-79
2023/06/23 08:16:36;;;;;;;5.72;4.00;;;21.30;87.10;;;;;;5048295;28;20091;-81
2023/06/23 08:19:02;;;;;;;6.30;3.70;;;21.40;86.90;;;;;;5067373;28;20090;-79
2023/06/23 08:21:28;;;;;;;6.18;4.32;;;21.50;86.50;;;;;;5068345;28;20071;-78
2023/06/23 08:23:54;;;;;;;6.32;4.25;;;21.60;85.30;;;;;;5068351;28;20544;-81
2023/06/23 08:26:21;;;;;;;4.22;3.83;;;21.70;84.90;;;;;;5068720;28;20149;-82
2023/06/23 08:28:47;;;;;;;5.20;4.03;;;21.80;82.70;;;;;;5048958;28;20060;-83
2023/06/23 08:31:12;;;;;;;7.82;3.67;;;21.90;83.30;;;;;;5067649;28;20063;-82
2023/06/23 08:33:39;;;;;;;5.90;3.58;;;21.90;83.10;;;;;;5067773;28;20044;-83
2023/06/23 08:36:05;;;;;;;5.85;4.30;;;22.10;81.90;;;;;;5048954;28;20079;-82
2023/06/23 08:38:31;;;;;;;5.03;3.42;;;22.20;80.00;;;;;;5068410;28;20054;-82
2023/06/23 08:40:57;;;;;;;4.97;3.53;;;22.40;79.90;;;;;;5068555;28;20069;-83
2023/06/23 08:43:25;;;;;;;6.13;3.70;;;22.90;77.60;;;;;;5068467;28;20037;-83
2023/06/23 08:45:57;;;;;;;3.75;2.80;;;23.60;75.10;;;;;;5068411;28;20168;-78
2023/06/23 08:48:30;;;;;;;5.82;3.20;;;24.50;74.00;;;;;;5058849;28;20039;-78
2023/06/23 08:50:58;;;;;;;5.63;3.15;;;25.50;72.00;;;;;;5067625;28;20055;-79
2023/06/23 08:53:24;;;;;;;6.63;3.00;;;26.40;65.90;;;;;;5067710;28;20146;-79
2023/06/23 08:55:51;;;;;;;3.72;2.70;;;27.20;63.00;;;;;;5047586;28;20116;-80
2023/06/23 08:58:20;;;;;;;3.30;3.00;;;27.80;60.80;;;;;;5067630;28;20086;-80
2023/06/23 09:00:47;;;;;;;3.70;2.75;;;28.30;58.60;;;;;;5068252;28;20492;-80
2023/06/23 09:03:13;;;;;;;3.53;3.00;;;28.80;56.30;;;;;;5067538;28;20020;-80
2023/06/23 09:05:42;;;;;;;5.10;3.05;;;29.20;55.30;;;;;;5067084;28;20111;-81
2023/06/23 09:08:08;;;;;;;5.20;3.05;;;29.50;53.10;;;;;;5067111;28;20021;-80
2023/06/23 09:10:34;;;;;;;8.18;3.00;;;29.70;52.80;;;;;;5067471;28;20112;-79
2023/06/23 09:13:00;;;;;;;3.58;2.90;;;29.80;50.50;;;;;;5068100;28;20112;-81
2023/06/23 09:15:26;;;;;;;2.85;2.47;;;30.00;50.00;;;;;;5067682;28;20522;-79
2023/06/23 09:17:53;;;;;;;3.65;2.90;;;30.30;51.50;;;;;;5047972;28;20033;-85
2023/06/23 09:20:19;;;;;;;3.38;2.65;;;30.60;48.70;;;;;;5067523;28;20118;-83
2023/06/23 09:22:46;;;;;;;4.18;2.75;;;30.70;47.10;;;;;;5067854;28;20047;-84
2023/06/23 09:25:50;;;;;;;4.50;3.10;;;30.70;47.70;;;;;;5063830;28;20086;-80
2023/06/23 09:28:35;;;;;;;7.28;3.20;;;30.50;46.10;;;;;;5049919;28;20079;-80
2023/06/23 09:31:10;;;;;;;4.53;3.40;;;30.30;46.60;;;;;;5046904;28;20020;-79
2023/06/23 09:33:49;;;;;;;4.25;3.08;;;30.10;46.30;;;;;;5065773;28;20025;-81
2023/06/23 09:36:14;;;;;;;3.15;2.70;;;29.90;47.10;;;;;;5067015;28;20024;-79
2023/06/23 09:38:40;;;;;;;4.43;3.50;;;29.70;48.90;;;;;;5047008;28;20036;-83
2023/06/23 09:41:10;;;;;;;5.05;3.33;;;29.70;49.10;;;;;;5046326;28;20029;-81
2023/06/23 09:43:42;;;;;;;6.47;2.80;;;29.70;49.10;;;;;;5060402;28;20385;-81
2023/06/23 09:46:09;;;;;;;3.75;3.28;;;29.90;48.50;;;;;;5066825;28;20031;-81
2023/06/23 09:48:35;;;;;;;5.95;3.53;;;30.20;49.30;;;;;;5064968;28;20579;-82
2023/06/23 09:51:05;;;;;;;7.10;3.60;;;30.50;48.90;;;;;;5066292;28;20646;-82
2023/06/23 09:53:32;;;;;;;5.68;3.58;;;30.70;48.70;;;;;;5067594;28;20067;-78
2023/06/23 09:55:59;;;;;;;3.20;2.88;;;31.00;48.70;;;;;;5066591;28;20032;-78
2023/06/23 09:58:29;;;;;;;3.38;2.90;;;31.20;47.00;;;;;;5066189;28;20139;-81
2023/06/23 10:01:12;;;;;;;5.85;3.97;;;31.30;47.70;;;;;;5066760;28;20046;-81
2023/06/23 10:03:52;;;;;;;6.05;3.33;;;31.50;46.30;;;;;;5066511;28;20358;-82
2023/06/23 10:06:21;;;;;;;4.10;3.47;;;31.70;47.60;;;;;;5067299;28;20021;-82
2023/06/23 10:08:47;;;;;;;4.95;3.88;;;31.90;44.70;;;;;;5066980;28;20028;-82
2023/06/23 10:11:17;;;;;;;3.65;3.17;;;32.00;44.40;;;;;;5045958;28;20029;-82
2023/06/23 10:13:44;;;;;;;4.28;2.78;;;32.00;45.20;;;;;;5066171;28;20020;-82
2023/06/23 10:16:10;;;;;;;4.38;2.65;;;32.20;45.00;;;;;;5066523;28;20028;-81
2023/06/23 10:18:36;;;;;;;4.38;2.90;;;32.40;44.00;;;;;;5066654;28;20024;-82
2023/06/23 10:21:02;;;;;;;4.28;2.75;;;32.60;42.10;;;;;;5062421;28;20374;-82
2023/06/23 10:23:29;;;;;;;3.33;3.03;;;32.70;42.10;;;;;;5047527;28;20029;-82
2023/06/23 10:25:56;;;;;;;4.65;2.90;;;32.60;42.90;;;;;;5046034;28;20029;-82
2023/06/23 10:28:23;;;;;;;3.72;3.08;;;32.80;42.00;;;;;;5060126;28;20055;-82
2023/06/23 10:30:49;;;;;;;4.60;2.67;;;32.90;42.50;;;;;;5066949;28;20625;-82
2023/06/23 10:33:20;;;;;;;3.30;2.63;;;33.00;41.40;;;;;;5065837;28;20028;-82
2023/06/23 10:35:51;;;;;;;3.80;2.90;;;33.00;42.70;;;;;;5066408;28;20027;-83
2023/06/23 10:38:22;;;;;;;5.90;2.95;;;33.10;41.50;;;;;;5066512;28;20021;-80
2023/06/23 10:40:54;;;;;;;2.70;2.40;;;33.20;41.40;;;;;;5065898;28;20075;-82
2023/06/23 10:43:22;;;;;;;4.32;3.05;;;33.40;43.10;;;;;;5063109;28;20028;-88
2023/06/23 10:45:49;;;;;;;3.28;2.35;;;34.10;40.70;;;;;;5067000;28;20024;-82
2023/06/23 10:48:15;;;;;;;3.38;2.92;;;34.60;40.60;;;;;;5063781;28;20055;-85
2023/06/23 10:50:41;;;;;;;4.00;2.85;;;35.10;38.30;;;;;;5065957;28;20075;-85
2023/06/23 10:53:17;;;;;;;2.50;2.30;;;35.50;38.50;;;;;;5066034;28;20020;-84
2023/06/23 10:55:47;;;;;;;2.70;2.50;;;35.80;36.70;;;;;;5060302;28;20054;-84
2023/06/23 10:58:18;;;;;;;2.35;2.08;;;35.90;35.70;;;;;;5066248;28;20032;-86
2023/06/23 11:00:46;;;;;;;3.13;2.50;;;36.10;36.60;;;;;;5047262;28;20043;-83
2023/06/23 11:03:42;;;;;;;3.65;2.35;;;36.10;35.60;;;;;;5068831;28;20903;-82
2023/06/23 11:06:09;;;;;;;3.45;2.45;;;36.20;35.60;;;;;;5066337;28;20103;-83
2023/06/23 11:08:37;;;;;;;2.95;2.35;;;36.30;36.10;;;;;;5070620;28;20104;-81
2023/06/23 11:11:05;;;;;;;3.38;2.35;;;36.60;34.10;;;;;;5068700;28;20016;-86
2023/06/23 11:13:35;;;;;;;3.78;2.20;;;36.90;34.40;;;;;;5069650;28;20028;-82
2023/06/23 11:16:02;;;;;;;2.40;2.10;;;37.10;33.20;;;;;;5069848;28;20025;-84
2023/06/23 11:18:28;;;;;;;2.50;2.30;;;37.00;32.60;;;;;;5070762;28;20024;-86
2023/06/23 11:21:00;;;;;;;3.05;2.30;;;36.90;33.40;;;;;;5069986;28;20039;-85
2023/06/23 11:23:25;;;;;;;3.45;2.25;;;36.80;33.10;;;;;;5069013;28;20123;-84
2023/06/23 11:25:54;;;;;;;3.90;2.63;;;36.80;32.50;;;;;;5070445;28;20437;-82
2023/06/23 11:28:38;;;;;;;2.83;2.35;;;36.70;33.70;;;;;;5069939;28;20019;-82
2023/06/23 11:31:13;;;;;;;2.90;1.98;;;36.90;33.70;;;;;;5070410;28;20025;-83
2023/06/23 11:33:40;;;;;;;3.03;2.20;;;36.90;33.10;;;;;;5069991;28;20020;-81
2023/06/23 11:36:17;;;;;;;3.22;2.15;;;37.00;33.30;;;;;;5049601;28;20287;-82
2023/06/23 11:38:44;;;;;;;4.35;2.33;;;37.10;33.50;;;;;;5069875;28;20059;-83
2023/06/23 11:41:12;;;;;;;3.47;2.22;;;37.30;33.60;;;;;;5069130;28;20028;-83
2023/06/23 11:43:38;;;;;;;3.67;1.90;;;37.50;32.80;;;;;;5069825;28;20039;-83
2023/06/23 11:46:08;;;;;;;3.25;2.10;;;37.50;32.70;;;;;;5069463;28;20033;-83
2023/06/23 11:48:36;;;;;;;3.27;2.63;;;37.80;32.90;;;;;;5068071;28;20048;-85
2023/06/23 11:51:06;;;;;;;2.72;2.42;;;38.00;32.40;;;;;;5069056;28;20704;-82
2023/06/23 11:53:33;;;;;;;2.55;2.35;;;38.20;30.40;;;;;;5069411;28;20120;-84
2023/06/23 11:55:59;;;;;;;4.10;2.35;;;38.30;30.50;;;;;;5069219;28;20033;-81
2023/06/23 11:58:29;;;;;;;3.17;2.22;;;38.20;30.20;;;;;;5062703;28;20140;-80
2023/06/23 12:00:55;;;;;;;2.95;2.22;;;37.80;30.40;;;;;;5069190;28;20400;-80
2023/06/23 12:03:20;;;;;;;2.90;2.38;;;37.70;30.50;;;;;;5049172;28;20505;-81
2023/06/23 12:05:46;;;;;;;3.22;2.53;;;37.60;30.50;;;;;;5069220;28;20025;-79
2023/06/23 12:08:13;;;;;;;2.95;2.10;;;37.70;30.80;;;;;;5068061;28;20057;-80
2023/06/23 12:10:40;;;;;;;3.05;2.30;;;37.90;31.40;;;;;;5068920;28;20377;-80
2023/06/23 12:13:13;;;;;;;3.80;2.42;;;38.30;30.50;;;;;;5068127;28;20021;-80
2023/06/23 12:15:43;;;;;;;4.38;2.40;;;38.30;30.70;;;;;;5048704;28;20017;-79
2023/06/23 12:18:11;;;;;;;3.50;2.55;;;38.50;29.90;;;;;;5066677;28;20059;-81
2023/06/23 12:20:41;;;;;;;3.00;2.42;;;38.50;29.60;;;;;;5068587;28;20097;-82
2023/06/23 12:23:10;;;;;;;2.58;2.38;;;38.80;29.00;;;;;;5066783;28;20497;-83
2023/06/23 12:25:44;;;;;;;5.22;2.33;;;38.90;29.20;;;;;;5068240;28;20059;-84
2023/06/23 12:28:18;;;;;;;3.15;2.20;;;39.40;30.10;;;;;;5070665;28;20056;-82
2023/06/23 12:30:47;;;;;;;2.25;2.05;;;40.00;28.70;;;;;;5069367;28;20116;-86
2023/06/23 12:33:13;;;;;;;4.18;2.42;;;40.50;28.60;;;;;;5069489;28;20021;-87
2023/06/23 12:35:39;;;;;;;2.67;2.45;;;41.00;27.00;;;;;;5069972;28;20027;-90
2023/06/23 12:38:08;;;;;;;3.30;2.58;;;41.30;27.80;;;;;;5069435;28;20044;-87
2023/06/23 12:40:35;;;;;;;3.70;2.22;;;41.60;27.60;;;;;;5069218;28;20094;-87
2023/06/23 12:43:03;;;;;;;3.22;2.67;;;42.10;27.20;;;;;;5069584;28;20083;-86
2023/06/23 12:45:28;;;;;;;3.90;2.60;;;42.40;26.20;;;;;;5070411;28;20020;-91
2023/06/23 12:47:54;;;;;;;2.92;2.40;;;42.10;25.60;;;;;;5068570;28;20027;-84
2023/06/23 12:50:38;;;;;;;2.33;2.13;;;41.50;26.50;;;;;;5061835;28;20029;-82
2023/06/23 12:53:03;;;;;;;2.67;2.28;;;41.30;26.90;;;;;;5064194;28;20020;-82
2023/06/23 12:55:29;;;;;;;2.78;2.42;;;41.10;26.80;;;;;;5054034;28;20039;-85